createdAt,value
2023-02-11T00:01:36.865Z,-1.65
2023-02-11T00:04:06.201Z,-1.70
2023-02-11T00:06:36.055Z,-1.71
2023-02-11T00:09:05.126Z,-1.69
2023-02-11T00:11:32.789Z,-1.75
2023-02-11T00:14:02.974Z,-1.80
2023-02-11T00:16:31.421Z,-1.77
2023-02-11T00:19:07.496Z,-1.80
2023-02-11T00:21:34.951Z,-1.85
2023-02-11T00:24:02.920Z,-1.91
2023-02-11T00:26:34.408Z,-2.00
2023-02-11T00:29:05.875Z,-1.99
2023-02-11T00:31:38.268Z,-1.96
2023-02-11T00:34:06.276Z,-1.97
2023-02-11T00:36:33.930Z,-2.06
2023-02-11T00:39:01.293Z,-1.95
2023-02-11T00:41:29.088Z,-2.02
2023-02-11T00:44:04.112Z,-2.05
2023-02-11T00:46:31.861Z,-2.02
2023-02-11T00:48:59.261Z,-2.02
2023-02-11T00:51:28.137Z,-2.17
2023-02-11T00:53:55.731Z,-2.12
2023-02-11T00:56:26.848Z,-2.13
2023-02-11T00:58:59.567Z,-2.20
2023-02-11T01:01:27.606Z,-2.18
2023-02-11T01:03:55.027Z,-2.26
2023-02-11T01:06:24.417Z,-2.28
2023-02-11T01:08:53.238Z,-2.30
2023-02-11T01:11:22.252Z,-2.31
2023-02-11T01:13:50.656Z,-2.29
2023-02-11T01:16:20.293Z,-2.29
2023-02-11T01:18:48.912Z,-2.26
2023-02-11T01:21:18.864Z,-2.36
2023-02-11T01:23:46.073Z,-2.25
2023-02-11T01:26:13.644Z,-2.51
2023-02-11T01:28:49.866Z,-2.35
2023-02-11T01:31:17.393Z,-2.42
2023-02-11T01:33:49.403Z,-2.31
2023-02-11T01:36:17.143Z,-2.39
2023-02-11T01:38:44.902Z,-2.41
2023-02-11T01:41:15.377Z,-2.37
2023-02-11T01:43:46.652Z,-2.40
2023-02-11T01:46:34.741Z,-2.57
2023-02-11T01:49:15.422Z,-2.55
2023-02-11T01:51:52.658Z,-2.58
2023-02-11T01:54:42.350Z,-2.64
2023-02-11T01:57:27.972Z,-2.68
2023-02-11T02:00:21.965Z,-2.61
2023-02-11T02:02:58.592Z,-2.60
2023-02-11T02:05:54.815Z,-2.78
2023-02-11T02:08:39.101Z,-2.71
2023-02-11T02:11:07.053Z,-2.76
2023-02-11T02:13:37.600Z,-2.79
2023-02-11T02:16:12.817Z,-3.02
2023-02-11T02:18:52.063Z,-2.69
2023-02-11T02:21:53.238Z,-2.70
2023-02-11T02:24:42.217Z,-2.77
2023-02-11T02:27:16.318Z,-2.78
2023-02-11T02:29:46.495Z,-2.96
2023-02-11T02:32:29.017Z,-2.83
2023-02-11T02:35:17.200Z,-3.04
2023-02-11T02:38:01.832Z,-2.80
2023-02-11T02:40:51.215Z,-2.87
2023-02-11T02:43:20.287Z,-2.89
2023-02-11T02:45:47.524Z,-2.87
2023-02-11T02:48:29.310Z,-2.89
2023-02-11T02:51:06.247Z,-2.89
2023-02-11T02:53:43.141Z,-2.90
2023-02-11T02:56:25.954Z,-2.95
2023-02-11T02:59:08.907Z,-2.95
2023-02-11T03:01:39.144Z,-2.94
2023-02-11T03:04:18.544Z,-2.94
2023-02-11T03:07:18.369Z,-3.04
2023-02-11T03:10:09.808Z,-2.97
2023-02-11T03:12:39.093Z,-3.06
2023-02-11T03:15:07.606Z,-2.99
2023-02-11T03:17:36.797Z,-3.19
2023-02-11T03:20:07.192Z,-3.02
2023-02-11T03:22:41.318Z,-3.07
2023-02-11T03:25:09.751Z,-3.11
2023-02-11T03:27:54.912Z,-3.10
2023-02-11T03:30:35.738Z,-3.30
2023-02-11T03:33:23.164Z,-3.21
2023-02-11T03:36:05.518Z,-3.24
2023-02-11T03:38:38.364Z,-3.23
2023-02-11T03:41:08.431Z,-3.23
2023-02-11T03:43:46.716Z,-3.25
2023-02-11T03:46:17.988Z,-3.31
2023-02-11T03:48:52.400Z,-3.40
2023-02-11T03:51:22.532Z,-3.39
2023-02-11T03:53:53.237Z,-3.37
2023-02-11T03:56:24.799Z,-3.35
2023-02-11T03:58:51.972Z,-3.41
2023-02-11T04:01:19.518Z,-3.43
2023-02-11T04:03:46.822Z,-3.48
2023-02-11T04:06:14.131Z,-3.46
2023-02-11T04:08:41.516Z,-3.69
2023-02-11T04:11:08.754Z,-3.55
2023-02-11T04:13:36.162Z,-3.55
2023-02-11T04:16:03.525Z,-3.56
2023-02-11T04:18:32.143Z,-3.52
2023-02-11T04:20:59.470Z,-3.52
2023-02-11T04:23:26.735Z,-3.54
2023-02-11T04:25:54.035Z,-3.56
2023-02-11T04:28:21.409Z,-3.62
2023-02-11T04:30:50.853Z,-3.58
2023-02-11T04:33:18.212Z,-3.60
2023-02-11T04:35:45.684Z,-3.57
2023-02-11T04:38:12.913Z,-3.60
2023-02-11T04:40:40.789Z,-3.66
2023-02-11T04:43:08.012Z,-3.70
2023-02-11T04:45:35.584Z,-3.68
2023-02-11T04:48:04.339Z,-3.71
2023-02-11T04:50:31.578Z,-3.78
2023-02-11T04:52:59.101Z,-3.72
2023-02-11T04:55:26.232Z,-3.71
2023-02-11T04:57:53.382Z,-3.77
2023-02-11T05:00:20.905Z,-3.87
2023-02-11T05:02:48.135Z,-3.84
2023-02-11T05:05:15.262Z,-3.95
2023-02-11T05:07:42.452Z,-3.81
2023-02-11T05:10:09.792Z,-3.78
2023-02-11T05:12:37.105Z,-3.81
2023-02-11T05:15:04.987Z,-3.85
2023-02-11T05:17:32.351Z,-3.86
2023-02-11T05:19:59.571Z,-3.84
2023-02-11T05:22:26.903Z,-3.91
2023-02-11T05:24:54.175Z,-3.89
2023-02-11T05:27:21.593Z,-3.89
2023-02-11T05:29:48.712Z,-3.87
2023-02-11T05:32:15.895Z,-3.87
2023-02-11T05:34:43.113Z,-3.87
2023-02-11T05:37:10.534Z,-4.07
2023-02-11T05:39:37.693Z,-3.94
2023-02-11T05:42:05.606Z,-3.97
2023-02-11T05:44:32.713Z,-3.97
2023-02-11T05:46:59.978Z,-3.97
2023-02-11T05:49:27.523Z,-3.91
2023-02-11T05:51:54.754Z,-3.88
2023-02-11T05:54:21.902Z,-4.11
2023-02-11T05:56:49.115Z,-3.91
2023-02-11T05:59:16.540Z,-4.03
2023-02-11T06:01:43.739Z,-4.00
2023-02-11T06:04:10.926Z,-4.05
2023-02-11T06:06:38.227Z,-3.98
2023-02-11T06:09:05.662Z,-4.12
2023-02-11T06:11:32.763Z,-3.99
2023-02-11T06:14:00.150Z,-4.10
2023-02-11T06:16:27.445Z,-4.08
2023-02-11T06:18:54.921Z,-4.05
2023-02-11T06:21:23.877Z,-4.07
2023-02-11T06:23:52.417Z,-4.05
2023-02-11T06:26:22.055Z,-4.06
2023-02-11T06:28:49.749Z,-4.20
2023-02-11T06:31:17.769Z,-4.06
2023-02-11T06:33:45.081Z,-4.04
2023-02-11T06:36:19.191Z,-4.00
2023-02-11T06:38:51.069Z,-4.00
2023-02-11T06:41:25.736Z,-4.05
2023-02-11T06:43:53.970Z,-4.16
2023-02-11T06:46:21.592Z,-4.08
2023-02-11T06:48:48.854Z,-4.03
2023-02-11T06:51:18.026Z,-4.03
2023-02-11T06:53:46.919Z,-4.03
2023-02-11T06:56:17.838Z,-4.11
2023-02-11T06:58:45.233Z,-4.27
2023-02-11T07:01:15.492Z,-4.06
2023-02-11T07:03:45.177Z,-3.95
2023-02-11T07:06:15.494Z,-3.92
2023-02-11T07:08:43.663Z,-3.82
2023-02-11T07:11:19.421Z,-3.83
2023-02-11T07:13:47.869Z,-3.81
2023-02-11T07:16:17.099Z,-3.99
2023-02-11T07:18:45.251Z,-3.85
2023-02-11T07:21:17.422Z,-4.04
2023-02-11T07:23:44.988Z,-3.91
2023-02-11T07:26:15.382Z,-3.92
2023-02-11T07:28:44.913Z,-3.89
2023-02-11T07:31:21.266Z,-3.90
2023-02-11T07:33:49.311Z,-3.87
2023-02-11T07:36:17.506Z,-3.88
2023-02-11T07:38:44.715Z,-3.84
2023-02-11T07:41:28.748Z,-3.90
2023-02-11T07:43:56.917Z,-4.03
2023-02-11T07:46:27.342Z,-3.87
2023-02-11T07:48:55.255Z,-3.84
2023-02-11T07:51:30.926Z,-3.76
2023-02-11T07:54:00.493Z,-3.87
2023-02-11T07:56:29.441Z,-3.72
2023-02-11T07:59:00.088Z,-3.83
2023-02-11T08:01:28.954Z,-3.70
2023-02-11T08:03:57.380Z,-3.64
2023-02-11T08:06:27.809Z,-3.61
2023-02-11T08:08:55.481Z,-3.58
2023-02-11T08:11:26.070Z,-3.68
2023-02-11T08:13:55.004Z,-3.52
2023-02-11T08:16:31.397Z,-3.48
2023-02-11T08:19:01.367Z,-3.42
2023-02-11T08:21:29.807Z,-3.12
2023-02-11T08:23:57.517Z,-2.67
2023-02-11T08:26:32.314Z,-2.63
2023-02-11T08:28:59.743Z,-2.72
2023-02-11T08:31:30.121Z,-2.74
2023-02-11T08:33:58.546Z,-2.65
2023-02-11T08:36:30.213Z,-2.64
2023-02-11T08:39:18.144Z,-2.67
2023-02-11T08:41:50.529Z,-2.46
2023-02-11T08:44:20.251Z,-2.39
2023-02-11T08:46:48.202Z,-2.31
2023-02-11T08:49:15.690Z,-2.21
2023-02-11T08:51:43.344Z,-2.20
2023-02-11T08:54:10.555Z,-2.11
2023-02-11T08:56:38.675Z,-2.27
2023-02-11T08:59:06.963Z,-2.07
2023-02-11T09:01:34.399Z,-1.89
2023-02-11T09:04:01.757Z,-1.77
2023-02-11T09:06:30.035Z,-1.71
2023-02-11T09:08:58.824Z,-1.52
2023-02-11T09:11:32.793Z,-1.53
2023-02-11T09:14:00.870Z,-1.57
2023-02-11T09:16:36.872Z,-1.45
2023-02-11T09:19:05.574Z,-1.34
2023-02-11T09:21:33.338Z,-1.24
2023-02-11T09:24:00.541Z,-1.15
2023-02-11T09:26:30.933Z,-0.84
2023-02-11T09:28:58.479Z,-0.77
2023-02-11T09:31:28.924Z,-0.70
2023-02-11T09:34:01.114Z,-0.73
2023-02-11T09:36:31.594Z,-0.55
2023-02-11T09:39:00.478Z,-0.33
2023-02-11T09:41:39.700Z,-0.22
2023-02-11T09:44:09.765Z,-0.17
2023-02-11T09:46:42.304Z,0.15
2023-02-11T09:49:20.272Z,0.13
2023-02-11T09:51:53.867Z,0.13
2023-02-11T09:54:28.701Z,0.29
2023-02-11T09:56:56.541Z,0.33
2023-02-11T09:59:24.038Z,0.48
2023-02-11T10:01:58.150Z,0.64
2023-02-11T10:04:44.315Z,0.88
2023-02-11T10:07:44.928Z,0.90
2023-02-11T10:10:38.347Z,1.17
2023-02-11T10:13:30.214Z,1.22
2023-02-11T10:16:24.012Z,1.51
2023-02-11T10:19:34.773Z,1.46
2023-02-11T10:22:15.534Z,1.72
2023-02-11T10:24:51.088Z,1.80
2023-02-11T10:27:24.988Z,1.87
2023-02-11T10:30:03.086Z,2.11
2023-02-11T10:32:44.701Z,2.13
2023-02-11T10:35:21.653Z,2.37
2023-02-11T10:37:49.703Z,2.59
2023-02-11T10:40:26.606Z,2.65
2023-02-11T10:43:01.669Z,2.90
2023-02-11T10:45:50.808Z,3.22
2023-02-11T10:48:36.396Z,3.13
2023-02-11T10:51:29.846Z,3.16
2023-02-11T10:54:13.567Z,3.43
2023-02-11T10:56:53.345Z,3.57
2023-02-11T10:59:34.220Z,3.64
2023-02-11T11:02:06.282Z,3.83
2023-02-11T11:04:42.999Z,4.03
2023-02-11T11:07:32.051Z,4.25
2023-02-11T11:10:25.732Z,4.13
2023-02-11T11:12:53.061Z,4.47
2023-02-11T11:15:29.423Z,4.53
2023-02-11T11:18:22.444Z,4.69
2023-02-11T11:21:05.949Z,4.72
2023-02-11T11:23:37.249Z,4.56
2023-02-11T11:26:14.093Z,5.07
2023-02-11T11:28:50.797Z,5.01
2023-02-11T11:31:29.157Z,5.11
2023-02-11T11:33:59.856Z,5.35
2023-02-11T11:36:37.319Z,5.39
2023-02-11T11:39:27.095Z,5.49
2023-02-11T11:42:00.618Z,5.83
2023-02-11T11:44:37.388Z,5.64
2023-02-11T11:47:13.830Z,5.65
2023-02-11T11:49:44.759Z,5.58
2023-02-11T11:52:21.345Z,5.62
2023-02-11T11:54:59.435Z,5.59
2023-02-11T11:57:30.255Z,5.77
2023-02-11T11:59:58.808Z,5.86
2023-02-11T12:02:53.898Z,6.11
2023-02-11T12:05:39.623Z,6.11
2023-02-11T12:08:34.599Z,6.30
2023-02-11T12:11:21.632Z,6.32
2023-02-11T12:14:04.429Z,6.63
2023-02-11T12:17:11.667Z,6.48
2023-02-11T12:19:55.627Z,6.44
2023-02-11T12:22:55.462Z,6.78
2023-02-11T12:25:27.897Z,7.06
2023-02-11T12:28:29.711Z,7.13
2023-02-11T12:31:27.241Z,7.32
2023-02-11T12:34:25.768Z,7.37
2023-02-11T12:37:16.156Z,7.38
2023-02-11T12:39:50.969Z,7.55
2023-02-11T12:42:49.530Z,7.52
2023-02-11T12:45:26.178Z,7.55
2023-02-11T12:48:35.838Z,7.65
2023-02-11T12:51:24.543Z,7.93
2023-02-11T12:54:15.246Z,7.92
2023-02-11T12:57:06.459Z,8.16
2023-02-11T12:59:39.930Z,8.29
2023-02-11T13:02:15.214Z,8.31
2023-02-11T13:04:49.414Z,8.29
2023-02-11T13:07:24.217Z,8.29
2023-02-11T13:10:00.022Z,8.36
2023-02-11T13:12:48.561Z,8.46
2023-02-11T13:15:16.812Z,8.40
2023-02-11T13:18:14.293Z,8.61
2023-02-11T13:20:55.161Z,8.54
2023-02-11T13:23:39.889Z,8.42
2023-02-11T13:26:35.387Z,8.51
2023-02-11T13:29:20.975Z,8.53
2023-02-11T13:32:16.014Z,8.61
2023-02-11T13:34:43.176Z,8.60
2023-02-11T13:37:22.808Z,8.55
2023-02-11T13:40:19.141Z,8.72
2023-02-11T13:42:57.163Z,8.68
2023-02-11T13:45:36.083Z,8.79
2023-02-11T13:48:07.253Z,8.81
2023-02-11T13:50:40.079Z,8.83
2023-02-11T13:53:11.568Z,9.07
2023-02-11T13:55:40.543Z,9.07
2023-02-11T13:58:26.878Z,9.10
2023-02-11T14:00:54.969Z,9.07
2023-02-11T14:03:57.610Z,8.98
2023-02-11T14:07:08.199Z,9.07
2023-02-11T14:09:40.569Z,9.04
2023-02-11T14:12:33.435Z,9.00
2023-02-11T14:15:08.084Z,9.08
2023-02-11T14:17:35.677Z,9.12
2023-02-11T14:20:24.400Z,9.20
2023-02-11T14:22:53.953Z,9.27
2023-02-11T14:25:24.525Z,9.22
2023-02-11T14:28:05.173Z,9.26
2023-02-11T14:30:39.807Z,9.30
2023-02-11T14:33:44.700Z,9.31
2023-02-11T14:36:11.958Z,9.43
2023-02-11T14:39:04.643Z,9.40
2023-02-11T14:41:43.569Z,9.42
2023-02-11T14:44:23.034Z,9.51
2023-02-11T14:46:54.049Z,9.49
2023-02-11T14:49:40.525Z,9.48
2023-02-11T14:52:29.050Z,9.54
2023-02-11T14:55:09.731Z,9.46
2023-02-11T14:57:38.270Z,9.56
2023-02-11T15:00:19.306Z,9.50
2023-02-11T15:02:47.071Z,9.57
2023-02-11T15:05:27.581Z,9.49
2023-02-11T15:08:03.213Z,9.41
2023-02-11T15:10:36.788Z,9.39
2023-02-11T15:13:05.732Z,9.37
2023-02-11T15:15:36.257Z,9.06
2023-02-11T15:18:05.261Z,9.24
2023-02-11T15:20:34.647Z,9.21
2023-02-11T15:23:09.697Z,9.16
2023-02-11T15:25:44.733Z,9.19
2023-02-11T15:28:26.464Z,9.10
2023-02-11T15:31:18.216Z,9.26
2023-02-11T15:33:46.296Z,9.23
2023-02-11T15:36:17.249Z,9.20
2023-02-11T15:38:44.796Z,9.20
2023-02-11T15:41:36.680Z,8.99
2023-02-11T15:44:04.564Z,8.94
2023-02-11T15:46:39.093Z,9.16
2023-02-11T15:49:08.852Z,9.18
2023-02-11T15:51:40.204Z,9.08
2023-02-11T15:54:20.061Z,9.10
2023-02-11T15:56:51.425Z,8.96
2023-02-11T15:59:20.951Z,8.84
2023-02-11T16:01:49.537Z,8.82
2023-02-11T16:04:20.449Z,8.75
2023-02-11T16:06:48.653Z,8.75
2023-02-11T16:09:15.844Z,8.74
2023-02-11T16:11:49.050Z,8.72
2023-02-11T16:14:28.398Z,8.62
2023-02-11T16:17:02.826Z,8.53
2023-02-11T16:19:32.254Z,8.51
2023-02-11T16:22:02.752Z,8.29
2023-02-11T16:24:37.388Z,8.26
2023-02-11T16:27:15.932Z,8.20
2023-02-11T16:29:47.867Z,8.11
2023-02-11T16:32:24.750Z,7.86
2023-02-11T16:34:54.373Z,8.02
2023-02-11T16:37:21.622Z,7.90
2023-02-11T16:39:48.837Z,7.74
2023-02-11T16:42:16.037Z,7.76
2023-02-11T16:44:43.182Z,7.62
2023-02-11T16:47:24.107Z,7.53
2023-02-11T16:49:51.590Z,7.49
2023-02-11T16:52:21.215Z,7.40
2023-02-11T16:54:48.613Z,7.31
2023-02-11T16:57:20.892Z,7.44
2023-02-11T16:59:49.078Z,7.24
2023-02-11T17:02:23.909Z,7.24
2023-02-11T17:04:54.350Z,7.12
2023-02-11T17:07:22.599Z,7.00
2023-02-11T17:09:50.302Z,6.98
2023-02-11T17:12:17.594Z,6.83
2023-02-11T17:14:44.896Z,6.68
2023-02-11T17:17:12.555Z,6.53
2023-02-11T17:19:40.996Z,6.66
2023-02-11T17:22:08.340Z,6.57
2023-02-11T17:24:35.989Z,6.46
2023-02-11T17:27:03.537Z,6.40
2023-02-11T17:29:30.988Z,6.29
2023-02-11T17:31:58.244Z,6.21
2023-02-11T17:34:25.610Z,6.12
2023-02-11T17:36:52.994Z,5.99
2023-02-11T17:39:21.359Z,5.90
2023-02-11T17:41:48.630Z,5.83
2023-02-11T17:44:16.746Z,5.69
2023-02-11T17:46:44.935Z,5.55
2023-02-11T17:49:12.565Z,5.55
2023-02-11T17:51:40.508Z,5.32
2023-02-11T17:54:14.283Z,5.34
2023-02-11T17:56:42.688Z,5.23
2023-02-11T17:59:11.050Z,5.08
2023-02-11T18:01:39.856Z,4.77
2023-02-11T18:04:08.809Z,4.85
2023-02-11T18:06:36.052Z,4.79
2023-02-11T18:09:04.589Z,4.64
2023-02-11T18:11:34.467Z,4.62
2023-02-11T18:14:08.085Z,4.48
2023-02-11T18:16:37.067Z,4.48
2023-02-11T18:19:04.849Z,4.33
2023-02-11T18:21:32.360Z,4.20
2023-02-11T18:24:05.781Z,4.14
2023-02-11T18:26:33.533Z,4.07
2023-02-11T18:29:00.880Z,4.03
2023-02-11T18:31:28.861Z,3.92
2023-02-11T18:33:56.436Z,3.92
2023-02-11T18:36:24.439Z,3.90
2023-02-11T18:38:54.732Z,3.83
2023-02-11T18:41:22.813Z,3.71
2023-02-11T18:43:50.788Z,3.63
2023-02-11T18:46:18.257Z,3.55
2023-02-11T18:48:45.754Z,3.45
2023-02-11T18:51:21.098Z,3.26
2023-02-11T18:53:48.578Z,3.16
2023-02-11T18:56:21.689Z,3.10
2023-02-11T18:58:49.904Z,2.90
2023-02-11T19:01:24.707Z,2.93
2023-02-11T19:03:52.605Z,2.91
2023-02-11T19:06:26.939Z,2.72
2023-02-11T19:09:00.378Z,2.81
2023-02-11T19:11:49.139Z,2.76
2023-02-11T19:14:19.863Z,2.66
2023-02-11T19:16:50.648Z,2.54
2023-02-11T19:19:19.241Z,2.47
2023-02-11T19:21:50.038Z,2.54
2023-02-11T19:24:20.225Z,2.42
2023-02-11T19:26:49.942Z,2.38
2023-02-11T19:29:18.105Z,2.12
2023-02-11T19:31:46.297Z,2.19
2023-02-11T19:34:15.742Z,2.04
2023-02-11T19:36:43.814Z,1.98
2023-02-11T19:39:11.303Z,2.04
2023-02-11T19:41:38.545Z,2.04
2023-02-11T19:44:08.669Z,1.97
2023-02-11T19:46:38.810Z,1.93
2023-02-11T19:49:06.184Z,1.89
2023-02-11T19:51:36.163Z,1.87
2023-02-11T19:54:03.419Z,1.79
2023-02-11T19:56:30.668Z,1.75
2023-02-11T19:58:58.232Z,1.78
2023-02-11T20:01:26.365Z,1.67
2023-02-11T20:03:55.208Z,1.68
2023-02-11T20:06:28.528Z,1.55
2023-02-11T20:08:58.861Z,1.39
2023-02-11T20:11:28.321Z,1.49
2023-02-11T20:13:56.497Z,1.44
2023-02-11T20:16:40.664Z,1.33
2023-02-11T20:19:08.254Z,1.28
2023-02-11T20:21:35.488Z,1.17
2023-02-11T20:24:03.559Z,1.14
2023-02-11T20:26:33.345Z,0.97
2023-02-11T20:29:04.443Z,1.02
2023-02-11T20:31:33.181Z,0.96
2023-02-11T20:34:01.778Z,0.94
2023-02-11T20:36:32.622Z,0.80
2023-02-11T20:39:00.777Z,0.80
2023-02-11T20:41:34.580Z,0.83
2023-02-11T20:44:05.348Z,0.79
2023-02-11T20:46:34.131Z,0.69
2023-02-11T20:49:02.157Z,0.49
2023-02-11T20:51:32.277Z,0.48
2023-02-11T20:54:00.357Z,0.43
2023-02-11T20:56:32.540Z,0.44
2023-02-11T20:59:02.470Z,0.26
2023-02-11T21:01:33.642Z,0.37
2023-02-11T21:04:06.626Z,0.32
2023-02-11T21:06:38.708Z,0.14
2023-02-11T21:09:08.343Z,0.14
2023-02-11T21:11:35.685Z,0.13
2023-02-11T21:14:02.934Z,0.14
2023-02-11T21:16:31.901Z,-0.23
2023-02-11T21:19:01.312Z,-0.03
2023-02-11T21:21:29.846Z,0.00
2023-02-11T21:23:58.889Z,-0.10
2023-02-11T21:26:26.272Z,-0.12
2023-02-11T21:28:55.432Z,-0.06
2023-02-11T21:31:25.686Z,-0.25
2023-02-11T21:33:55.821Z,-0.21
2023-02-11T21:36:28.116Z,-0.29
2023-02-11T21:38:55.502Z,-0.30
2023-02-11T21:41:22.921Z,-0.29
2023-02-11T21:43:51.305Z,-0.28
2023-02-11T21:46:20.069Z,-0.28
2023-02-11T21:48:47.841Z,-0.29
2023-02-11T21:51:19.567Z,-0.60
2023-02-11T21:53:47.071Z,-0.35
2023-02-11T21:56:17.496Z,-0.50
2023-02-11T21:58:45.648Z,-0.35
2023-02-11T22:01:18.672Z,-0.34
2023-02-11T22:03:47.128Z,-0.30
2023-02-11T22:06:17.872Z,-0.35
2023-02-11T22:08:45.232Z,-0.47
2023-02-11T22:11:13.718Z,-0.47
2023-02-11T22:13:41.811Z,-0.62
2023-02-11T22:16:12.954Z,-0.57
2023-02-11T22:18:41.259Z,-0.66
2023-02-11T22:21:14.997Z,-0.56
2023-02-11T22:23:42.575Z,-0.56
2023-02-11T22:26:21.182Z,-0.64
2023-02-11T22:28:49.354Z,-0.69
2023-02-11T22:31:19.701Z,-0.73
2023-02-11T22:33:47.488Z,-0.82
2023-02-11T22:36:19.877Z,-0.75
2023-02-11T22:38:47.895Z,-0.77
2023-02-11T22:41:15.741Z,-0.75
2023-02-11T22:43:44.537Z,-0.76
2023-02-11T22:46:14.793Z,-0.98
2023-02-11T22:48:42.807Z,-0.91
2023-02-11T22:51:19.850Z,-0.87
2023-02-11T22:53:55.651Z,-1.04
2023-02-11T22:56:23.936Z,-0.87
2023-02-11T22:58:52.309Z,-0.90
2023-02-11T23:01:20.111Z,-0.93
2023-02-11T23:03:47.388Z,-0.89
2023-02-11T23:06:14.673Z,-0.95
2023-02-11T23:08:43.614Z,-0.91
2023-02-11T23:11:17.998Z,-0.94
2023-02-11T23:13:46.830Z,-1.06
2023-02-11T23:16:18.228Z,-0.93
2023-02-11T23:18:47.806Z,-1.10
2023-02-11T23:21:35.099Z,-0.89
2023-02-11T23:24:08.507Z,-0.92
2023-02-11T23:26:38.725Z,-0.96
2023-02-11T23:29:06.164Z,-0.96
2023-02-11T23:31:37.770Z,-1.10
2023-02-11T23:34:05.803Z,-0.91
2023-02-11T23:36:33.729Z,-0.94
2023-02-11T23:39:01.241Z,-1.00
2023-02-11T23:41:28.778Z,-1.02
2023-02-11T23:43:58.251Z,-1.07
2023-02-11T23:46:28.304Z,-1.25
2023-02-11T23:48:55.764Z,-1.07
2023-02-11T23:51:23.853Z,-1.14
2023-02-11T23:53:51.955Z,-1.17
2023-02-11T23:56:22.594Z,-1.17
2023-02-11T23:58:51.491Z,-1.17
